sensor_id;sensor_type;location;lat;lon;timestamp;pressure;altitude;pressure_sealevel;temperature;humidity
57779;BME280;43608;49.486;9.640;2022-07-10T00:00:14;99315.53;;;14.20;77.84
57779;BME280;43608;49.486;9.640;2022-07-10T00:00:47;99316.44;;;14.19;77.80
57779;BME280;43608;49.486;9.640;2022-07-10T00:01:18;99336.78;;;14.31;78.06
57779;BME280;43608;49.486;9.640;2022-07-10T00:01:48;99336.78;;;14.28;77.90
57779;BME280;43608;49.486;9.640;2022-07-10T00:02:19;99320.03;;;14.13;78.08
57779;BME280;43608;49.486;9.640;2022-07-10T00:02:49;99341.25;;;14.26;78.18
57779;BME280;43608;49.486;9.640;2022-07-10T00:03:19;99343.03;;;14.24;78.37
57779;BME280;43608;49.486;9.640;2022-07-10T00:03:50;99297.09;;;13.94;78.21
57779;BME280;43608;49.486;9.640;2022-07-10T00:04:20;99302.34;;;14.01;78.23
57779;BME280;43608;49.486;9.640;2022-07-10T00:04:51;99335.13;;;14.14;78.42
57779;BME280;43608;49.486;9.640;2022-07-10T00:05:22;99305.09;;;13.94;78.49
57779;BME280;43608;49.486;9.640;2022-07-10T00:05:52;99336.94;;;14.14;78.58
57779;BME280;43608;49.486;9.640;2022-07-10T00:06:22;99337.81;;;14.13;78.52
57779;BME280;43608;49.486;9.640;2022-07-10T00:06:53;99304.22;;;13.93;78.85
57779;BME280;43608;49.486;9.640;2022-07-10T00:07:26;99333.41;;;14.09;78.81
57779;BME280;43608;49.486;9.640;2022-07-10T00:07:56;99290.09;;;13.82;78.84
57779;BME280;43608;49.486;9.640;2022-07-10T00:08:27;99329.00;;;14.04;78.83
57779;BME280;43608;49.486;9.640;2022-07-10T00:08:57;99282.16;;;13.74;78.94
57779;BME280;43608;49.486;9.640;2022-07-10T00:09:27;99304.28;;;13.82;79.14
57779;BME280;43608;49.486;9.640;2022-07-10T00:09:58;99329.91;;;14.00;78.87
57779;BME280;43608;49.486;9.640;2022-07-10T00:10:28;99306.06;;;13.83;79.38
57779;BME280;43608;49.486;9.640;2022-07-10T00:10:59;99332.63;;;13.96;79.24
57779;BME280;43608;49.486;9.640;2022-07-10T00:11:30;99325.53;;;13.93;79.51
57779;BME280;43608;49.486;9.640;2022-07-10T00:12:00;99337.97;;;13.94;79.33
57779;BME280;43608;49.486;9.640;2022-07-10T00:12:30;99341.53;;;13.93;79.42
57779;BME280;43608;49.486;9.640;2022-07-10T00:13:01;99307.91;;;13.75;79.47
57779;BME280;43608;49.486;9.640;2022-07-10T00:13:31;99308.78;;;13.74;79.52
57779;BME280;43608;49.486;9.640;2022-07-10T00:14:02;99309.69;;;13.75;79.57
57779;BME280;43608;49.486;9.640;2022-07-10T00:14:32;99337.13;;;13.89;79.55
57779;BME280;43608;49.486;9.640;2022-07-10T00:15:03;99309.72;;;13.70;79.34
57779;BME280;43608;49.486;9.640;2022-07-10T00:15:34;99341.56;;;13.85;79.68
57779;BME280;43608;49.486;9.640;2022-07-10T00:16:05;99326.53;;;13.77;79.98
57779;BME280;43608;49.486;9.640;2022-07-10T00:16:36;99329.22;;;13.75;80.22
57779;BME280;43608;49.486;9.640;2022-07-10T00:17:06;99311.53;;;13.63;79.94
57779;BME280;43608;49.486;9.640;2022-07-10T00:17:37;99333.66;;;13.76;80.00
57779;BME280;43608;49.486;9.640;2022-07-10T00:18:09;99302.69;;;13.60;80.28
57779;BME280;43608;49.486;9.640;2022-07-10T00:18:39;99333.66;;;13.73;80.04
57779;BME280;43608;49.486;9.640;2022-07-10T00:19:10;99330.13;;;13.71;80.25
57779;BME280;43608;49.486;9.640;2022-07-10T00:19:40;99337.19;;;13.75;80.01
57779;BME280;43608;49.486;9.640;2022-07-10T00:20:12;99340.75;;;13.77;80.22
57779;BME280;43608;49.486;9.640;2022-07-10T00:20:42;99315.97;;;13.64;80.34
57779;BME280;43608;49.486;9.640;2022-07-10T00:21:13;99336.34;;;13.75;80.50
57779;BME280;43608;49.486;9.640;2022-07-10T00:21:43;99314.19;;;13.60;80.58
57779;BME280;43608;49.486;9.640;2022-07-10T00:22:13;99292.06;;;13.52;80.35
57779;BME280;43608;49.486;9.640;2022-07-10T00:22:44;99336.34;;;13.70;80.63
57779;BME280;43608;49.486;9.640;2022-07-10T00:23:14;99351.44;;;13.71;80.58
57779;BME280;43608;49.486;9.640;2022-07-10T00:23:44;99340.81;;;13.69;80.73
57779;BME280;43608;49.486;9.640;2022-07-10T00:24:15;99342.56;;;13.69;80.68
57779;BME280;43608;49.486;9.640;2022-07-10T00:24:45;99337.25;;;13.67;80.64
57779;BME280;43608;49.486;9.640;2022-07-10T00:25:16;99321.34;;;13.53;80.69
57779;BME280;43608;49.486;9.640;2022-07-10T00:25:47;99330.19;;;13.60;80.55
57779;BME280;43608;49.486;9.640;2022-07-10T00:26:18;99346.16;;;13.63;81.01
57779;BME280;43608;49.486;9.640;2022-07-10T00:26:48;99318.72;;;13.49;80.84
57779;BME280;43608;49.486;9.640;2022-07-10T00:27:18;99345.28;;;13.61;80.88
57779;BME280;43608;49.486;9.640;2022-07-10T00:27:49;99320.50;;;13.48;80.77
57779;BME280;43608;49.486;9.640;2022-07-10T00:28:19;99337.31;;;13.58;80.90
57779;BME280;43608;49.486;9.640;2022-07-10T00:28:50;99341.72;;;13.58;81.07
57779;BME280;43608;49.486;9.640;2022-07-10T00:29:20;99294.84;;;13.29;81.08
57779;BME280;43608;49.486;9.640;2022-07-10T00:29:51;99331.13;;;13.54;81.17
57779;BME280;43608;49.486;9.640;2022-07-10T00:30:22;99312.56;;;13.39;81.26
57779;BME280;43608;49.486;9.640;2022-07-10T00:30:52;99317.00;;;13.40;81.12
57779;BME280;43608;49.486;9.640;2022-07-10T00:31:23;99329.41;;;13.47;81.17
57779;BME280;43608;49.486;9.640;2022-07-10T00:31:53;99336.47;;;13.53;81.23
57779;BME280;43608;49.486;9.640;2022-07-10T00:32:24;99334.69;;;13.50;81.35
57779;BME280;43608;49.486;9.640;2022-07-10T00:32:54;99316.13;;;13.33;81.18
57779;BME280;43608;49.486;9.640;2022-07-10T00:33:25;99342.69;;;13.50;81.36
57779;BME280;43608;49.486;9.640;2022-07-10T00:33:56;99336.47;;;13.48;81.03
57779;BME280;43608;49.486;9.640;2022-07-10T00:34:26;99334.72;;;13.44;81.40
57779;BME280;43608;49.486;9.640;2022-07-10T00:34:57;99335.63;;;13.40;81.32
57779;BME280;43608;49.486;9.640;2022-07-10T00:35:27;99313.47;;;13.29;81.48
57779;BME280;43608;49.486;9.640;2022-07-10T00:35:58;99340.94;;;13.43;81.85
57779;BME280;43608;49.486;9.640;2022-07-10T00:36:29;99340.94;;;13.42;81.44
57779;BME280;43608;49.486;9.640;2022-07-10T00:36:59;99335.63;;;13.40;81.74
57779;BME280;43608;49.486;9.640;2022-07-10T00:37:30;99319.69;;;13.31;81.52
57779;BME280;43608;49.486;9.640;2022-07-10T00:38:00;99340.06;;;13.41;81.48
57779;BME280;43608;49.486;9.640;2022-07-10T00:38:31;99314.38;;;13.26;81.72
57779;BME280;43608;49.486;9.640;2022-07-10T00:39:01;99310.81;;;13.22;81.69
57779;BME280;43608;49.486;9.640;2022-07-10T00:39:32;99333.88;;;13.37;81.85
57779;BME280;43608;49.486;9.640;2022-07-10T00:40:03;99334.75;;;13.36;81.90
57779;BME280;43608;49.486;9.640;2022-07-10T00:40:35;99338.28;;;13.35;81.72
57779;BME280;43608;49.486;9.640;2022-07-10T00:41:05;99338.28;;;13.34;81.97
57779;BME280;43608;49.486;9.640;2022-07-10T00:41:36;99333.00;;;13.31;82.00
57779;BME280;43608;49.486;9.640;2022-07-10T00:42:11;99347.16;;;13.33;81.97
57779;BME280;43608;49.486;9.640;2022-07-10T00:42:43;99339.22;;;13.27;81.68
57779;BME280;43608;49.486;9.640;2022-07-10T00:43:13;99277.28;;;12.91;81.81
57779;BME280;43608;49.486;9.640;2022-07-10T00:43:57;99340.13;;;13.26;82.02
57779;BME280;43608;49.486;9.640;2022-07-10T00:44:27;99334.78;;;13.22;81.72
57779;BME280;43608;49.486;9.640;2022-07-10T00:44:58;99338.34;;;13.23;81.85
57779;BME280;43608;49.486;9.640;2022-07-10T00:45:28;99335.72;;;13.15;82.03
57779;BME280;43608;49.486;9.640;2022-07-10T00:45:59;99338.38;;;13.17;82.10
57779;BME280;43608;49.486;9.640;2022-07-10T00:46:30;99341.91;;;13.19;82.32
57779;BME280;43608;49.486;9.640;2022-07-10T00:47:02;99269.34;;;12.77;82.18
57779;BME280;43608;49.486;9.640;2022-07-10T00:47:32;99350.78;;;13.18;82.35
57779;BME280;43608;49.486;9.640;2022-07-10T00:48:03;99281.78;;;12.78;82.59
57779;BME280;43608;49.486;9.640;2022-07-10T00:48:34;99352.59;;;13.13;82.03
57779;BME280;43608;49.486;9.640;2022-07-10T00:49:04;99347.28;;;13.11;82.22
57779;BME280;43608;49.486;9.640;2022-07-10T00:49:35;99349.03;;;13.11;82.43
57779;BME280;43608;49.486;9.640;2022-07-10T00:50:06;99357.00;;;13.11;82.54
57779;BME280;43608;49.486;9.640;2022-07-10T00:50:37;99349.06;;;13.06;82.42
57779;BME280;43608;49.486;9.640;2022-07-10T00:51:08;99353.50;;;13.09;82.49
57779;BME280;43608;49.486;9.640;2022-07-10T00:51:39;99349.09;;;13.04;82.52
57779;BME280;43608;49.486;9.640;2022-07-10T00:52:12;99317.22;;;12.83;82.77
57779;BME280;43608;49.486;9.640;2022-07-10T00:52:42;99354.41;;;13.06;82.53
57779;BME280;43608;49.486;9.640;2022-07-10T00:53:13;99354.41;;;13.06;82.34
57779;BME280;43608;49.486;9.640;2022-07-10T00:53:44;99355.28;;;13.05;82.40
57779;BME280;43608;49.486;9.640;2022-07-10T00:54:16;99349.97;;;13.03;82.71
57779;BME280;43608;49.486;9.640;2022-07-10T00:54:48;99336.69;;;12.94;82.66
57779;BME280;43608;49.486;9.640;2022-07-10T00:55:21;99328.75;;;12.86;82.56
57779;BME280;43608;49.486;9.640;2022-07-10T00:55:51;99344.63;;;13.00;82.87
57779;BME280;43608;49.486;9.640;2022-07-10T00:56:27;99346.44;;;12.97;82.78
57779;BME280;43608;49.486;9.640;2022-07-10T00:56:57;99357.09;;;12.97;83.00
57779;BME280;43608;49.486;9.640;2022-07-10T00:57:28;99341.09;;;12.95;82.85
57779;BME280;43608;49.486;9.640;2022-07-10T00:57:58;99356.19;;;12.96;83.23
57779;BME280;43608;49.486;9.640;2022-07-10T00:58:29;99350.91;;;12.92;83.29
57779;BME280;43608;49.486;9.640;2022-07-10T00:59:00;99322.56;;;12.80;83.37
57779;BME280;43608;49.486;9.640;2022-07-10T00:59:31;99317.22;;;12.78;83.17
57779;BME280;43608;49.486;9.640;2022-07-10T01:00:02;99332.28;;;12.84;83.45
57779;BME280;43608;49.486;9.640;2022-07-10T01:00:34;99352.63;;;12.93;83.51
57779;BME280;43608;49.486;9.640;2022-07-10T01:01:05;99350.00;;;12.89;83.30
57779;BME280;43608;49.486;9.640;2022-07-10T01:01:36;99350.91;;;12.92;83.46
57779;BME280;43608;49.486;9.640;2022-07-10T01:02:07;99350.00;;;12.91;83.39
57779;BME280;43608;49.486;9.640;2022-07-10T01:02:41;99334.06;;;12.82;83.37
57779;BME280;43608;49.486;9.640;2022-07-10T01:03:12;99342.91;;;12.85;83.45
57779;BME280;43608;49.486;9.640;2022-07-10T01:03:43;99342.91;;;12.87;83.50
57779;BME280;43608;49.486;9.640;2022-07-10T01:04:17;99313.72;;;12.68;83.36
57779;BME280;43608;49.486;9.640;2022-07-10T01:04:47;99341.16;;;12.84;83.69
57779;BME280;43608;49.486;9.640;2022-07-10T01:05:18;99320.78;;;12.72;83.73
57779;BME280;43608;49.486;9.640;2022-07-10T01:05:48;99324.34;;;12.76;83.76
57779;BME280;43608;49.486;9.640;2022-07-10T01:06:18;99341.13;;;12.86;83.82
57779;BME280;43608;49.486;9.640;2022-07-10T01:06:49;99315.47;;;12.71;83.78
57779;BME280;43608;49.486;9.640;2022-07-10T01:07:19;99331.41;;;12.80;83.66
57779;BME280;43608;49.486;9.640;2022-07-10T01:07:50;99340.25;;;12.85;83.75
57779;BME280;43608;49.486;9.640;2022-07-10T01:08:20;99309.28;;;12.66;84.09
57779;BME280;43608;49.486;9.640;2022-07-10T01:08:50;99340.28;;;12.84;83.85
57779;BME280;43608;49.486;9.640;2022-07-10T01:09:21;99324.31;;;12.73;84.10
57779;BME280;43608;49.486;9.640;2022-07-10T01:09:51;99315.47;;;12.71;84.35
57779;BME280;43608;49.486;9.640;2022-07-10T01:10:22;99304.84;;;12.65;84.05
57779;BME280;43608;49.486;9.640;2022-07-10T01:10:52;99339.38;;;12.83;83.95
57779;BME280;43608;49.486;9.640;2022-07-10T01:11:23;99339.38;;;12.83;84.17
57779;BME280;43608;49.486;9.640;2022-07-10T01:11:55;99334.06;;;12.82;84.25
57779;BME280;43608;49.486;9.640;2022-07-10T01:12:27;99341.16;;;12.83;84.27
57779;BME280;43608;49.486;9.640;2022-07-10T01:12:57;99306.66;;;12.64;84.50
57779;BME280;43608;49.486;9.640;2022-07-10T01:13:28;99338.50;;;12.83;84.52
57779;BME280;43608;49.486;9.640;2022-07-10T01:14:00;99314.59;;;12.67;84.45
57779;BME280;43608;49.486;9.640;2022-07-10T01:14:32;99334.97;;;12.82;84.38
57779;BME280;43608;49.486;9.640;2022-07-10T01:15:02;99341.16;;;12.83;84.62
57779;BME280;43608;49.486;9.640;2022-07-10T01:15:33;99330.53;;;12.81;84.67
57779;BME280;43608;49.486;9.640;2022-07-10T01:16:03;99321.69;;;12.71;84.77
57779;BME280;43608;49.486;9.640;2022-07-10T01:16:34;99316.38;;;12.67;84.44
57779;BME280;43608;49.486;9.640;2022-07-10T01:17:06;99338.50;;;12.81;84.33
57779;BME280;43608;49.486;9.640;2022-07-10T01:17:37;99328.78;;;12.77;84.68
57779;BME280;43608;49.486;9.640;2022-07-10T01:18:08;99313.72;;;12.70;84.51
57779;BME280;43608;49.486;9.640;2022-07-10T01:18:39;99336.75;;;12.79;84.54
57779;BME280;43608;49.486;9.640;2022-07-10T01:19:09;99328.75;;;12.76;84.40
57779;BME280;43608;49.486;9.640;2022-07-10T01:19:40;99317.28;;;12.66;84.49
57779;BME280;43608;49.486;9.640;2022-07-10T01:20:10;99332.31;;;12.76;84.57
57779;BME280;43608;49.486;9.640;2022-07-10T01:20:41;99324.34;;;12.71;84.51
57779;BME280;43608;49.486;9.640;2022-07-10T01:21:58;99305.75;;;12.56;84.54
57779;BME280;43608;49.486;9.640;2022-07-10T01:22:28;99318.19;;;12.60;84.63
57779;BME280;43608;49.486;9.640;2022-07-10T01:22:59;99339.44;;;12.69;84.56
57779;BME280;43608;49.486;9.640;2022-07-10T01:23:30;99334.09;;;12.68;84.63
57779;BME280;43608;49.486;9.640;2022-07-10T01:24:04;99339.44;;;12.69;84.75
57779;BME280;43608;49.486;9.640;2022-07-10T01:24:36;99342.06;;;12.66;84.61
57779;BME280;43608;49.486;9.640;2022-07-10T01:25:07;99321.72;;;12.58;84.61
57779;BME280;43608;49.486;9.640;2022-07-10T01:25:37;99322.63;;;12.56;84.55
57779;BME280;43608;49.486;9.640;2022-07-10T01:26:08;99341.22;;;12.66;84.62
57779;BME280;43608;49.486;9.640;2022-07-10T01:26:38;99341.22;;;12.66;84.58
57779;BME280;43608;49.486;9.640;2022-07-10T01:27:12;99346.53;;;12.64;84.68
57779;BME280;43608;49.486;9.640;2022-07-10T01:27:43;99335.91;;;12.64;84.73
57779;BME280;43608;49.486;9.640;2022-07-10T01:28:14;99314.66;;;12.44;84.71
57779;BME280;43608;49.486;9.640;2022-07-10T01:28:45;99322.59;;;12.53;84.41
57779;BME280;43608;49.486;9.640;2022-07-10T01:29:15;99338.56;;;12.60;84.65
57779;BME280;43608;49.486;9.640;2022-07-10T01:29:46;99338.56;;;12.58;84.53
57779;BME280;43608;49.486;9.640;2022-07-10T01:30:17;99319.97;;;12.44;84.75
57779;BME280;43608;49.486;9.640;2022-07-10T01:30:49;99325.28;;;12.49;84.80
57779;BME280;43608;49.486;9.640;2022-07-10T01:31:23;99345.66;;;12.58;84.71
57779;BME280;43608;49.486;9.640;2022-07-10T01:31:54;99317.31;;;12.38;84.72
57779;BME280;43608;49.486;9.640;2022-07-10T01:32:25;99330.59;;;12.47;84.78
57779;BME280;43608;49.486;9.640;2022-07-10T01:32:55;99321.72;;;12.40;84.60
57779;BME280;43608;49.486;9.640;2022-07-10T01:33:25;99347.44;;;12.52;85.02
57779;BME280;43608;49.486;9.640;2022-07-10T01:33:56;99348.31;;;12.51;84.96
57779;BME280;43608;49.486;9.640;2022-07-10T01:34:27;99347.44;;;12.52;84.98
57779;BME280;43608;49.486;9.640;2022-07-10T01:34:57;99337.69;;;12.48;85.13
57779;BME280;43608;49.486;9.640;2022-07-10T01:35:28;99327.94;;;12.43;85.26
57779;BME280;43608;49.486;9.640;2022-07-10T01:35:58;99336.78;;;12.43;85.04
57779;BME280;43608;49.486;9.640;2022-07-10T01:36:29;99340.34;;;12.48;84.92
57779;BME280;43608;49.486;9.640;2022-07-10T01:37:02;99340.34;;;12.45;84.98
57779;BME280;43608;49.486;9.640;2022-07-10T01:37:33;99330.63;;;12.39;85.22
57779;BME280;43608;49.486;9.640;2022-07-10T01:38:03;99334.13;;;12.42;85.26
57779;BME280;43608;49.486;9.640;2022-07-10T01:38:34;99340.34;;;12.47;85.03
57779;BME280;43608;49.486;9.640;2022-07-10T01:39:06;99352.75;;;12.46;85.34
57779;BME280;43608;49.486;9.640;2022-07-10T01:39:36;99341.22;;;12.46;85.17
57779;BME280;43608;49.486;9.640;2022-07-10T01:40:08;99350.09;;;12.48;85.28
57779;BME280;43608;49.486;9.640;2022-07-10T01:40:39;99333.28;;;12.39;84.83
57779;BME280;43608;49.486;9.640;2022-07-10T01:41:09;99350.97;;;12.45;85.01
57779;BME280;43608;49.486;9.640;2022-07-10T01:41:40;99343.88;;;12.44;85.00
57779;BME280;43608;49.486;9.640;2022-07-10T01:42:10;99351.00;;;12.42;84.92
57779;BME280;43608;49.486;9.640;2022-07-10T01:42:40;99336.81;;;12.40;85.30
57779;BME280;43608;49.486;9.640;2022-07-10T01:43:11;99345.69;;;12.42;85.20
57779;BME280;43608;49.486;9.640;2022-07-10T01:43:41;99313.78;;;12.20;84.93
57779;BME280;43608;49.486;9.640;2022-07-10T01:44:13;99326.19;;;12.25;85.03
57779;BME280;43608;49.486;9.640;2022-07-10T01:44:43;99348.31;;;12.39;85.09
57779;BME280;43608;49.486;9.640;2022-07-10T01:45:16;99308.47;;;12.16;84.83
57779;BME280;43608;49.486;9.640;2022-07-10T01:45:47;99322.66;;;12.22;85.17
57779;BME280;43608;49.486;9.640;2022-07-10T01:46:18;99342.13;;;12.32;85.10
57779;BME280;43608;49.486;9.640;2022-07-10T01:46:48;99321.78;;;12.19;84.75
57779;BME280;43608;49.486;9.640;2022-07-10T01:47:19;99339.47;;;12.26;84.84
57779;BME280;43608;49.486;9.640;2022-07-10T01:47:49;99351.88;;;12.35;85.19
57779;BME280;43608;49.486;9.640;2022-07-10T01:48:20;99310.25;;;12.09;84.90
57779;BME280;43608;49.486;9.640;2022-07-10T01:48:50;99322.66;;;12.12;85.03
57779;BME280;43608;49.486;9.640;2022-07-10T01:49:20;99351.91;;;12.30;84.99
57779;BME280;43608;49.486;9.640;2022-07-10T01:49:52;99327.97;;;12.13;85.08
57779;BME280;43608;49.486;9.640;2022-07-10T01:50:25;99345.69;;;12.25;85.25
57779;BME280;43608;49.486;9.640;2022-07-10T01:50:56;99337.72;;;12.19;85.27
57779;BME280;43608;49.486;9.640;2022-07-10T01:51:26;99355.44;;;12.28;85.42
57779;BME280;43608;49.486;9.640;2022-07-10T01:51:57;99347.44;;;12.26;85.55
57779;BME280;43608;49.486;9.640;2022-07-10T01:52:27;99343.03;;;12.19;85.27
57779;BME280;43608;49.486;9.640;2022-07-10T01:52:58;99335.06;;;12.14;85.05
57779;BME280;43608;49.486;9.640;2022-07-10T01:53:28;99347.47;;;12.23;85.20
57779;BME280;43608;49.486;9.640;2022-07-10T01:53:58;99343.91;;;12.21;85.02
57779;BME280;43608;49.486;9.640;2022-07-10T01:54:29;99294.31;;;11.87;85.03
57779;BME280;43608;49.486;9.640;2022-07-10T01:54:59;99356.31;;;12.20;85.31
57779;BME280;43608;49.486;9.640;2022-07-10T01:55:30;99353.66;;;12.22;85.37
57779;BME280;43608;49.486;9.640;2022-07-10T01:56:05;99344.78;;;12.18;85.23
57779;BME280;43608;49.486;9.640;2022-07-10T01:56:36;99356.31;;;12.19;85.16
57779;BME280;43608;49.486;9.640;2022-07-10T01:57:08;99354.53;;;12.21;85.18
57779;BME280;43608;49.486;9.640;2022-07-10T01:57:39;99364.28;;;12.19;85.18
57779;BME280;43608;49.486;9.640;2022-07-10T01:58:09;99356.31;;;12.17;85.42
57779;BME280;43608;49.486;9.640;2022-07-10T01:58:40;99351.00;;;12.17;85.27
57779;BME280;43608;49.486;9.640;2022-07-10T01:59:11;99357.19;;;12.18;85.06
57779;BME280;43608;49.486;9.640;2022-07-10T01:59:41;99357.22;;;12.16;85.36
57779;BME280;43608;49.486;9.640;2022-07-10T02:00:12;99343.00;;;12.16;85.27
57779;BME280;43608;49.486;9.640;2022-07-10T02:00:42;99349.22;;;12.10;85.43
57779;BME280;43608;49.486;9.640;2022-07-10T02:01:15;99353.66;;;12.13;85.32
57779;BME280;43608;49.486;9.640;2022-07-10T02:01:45;99332.41;;;12.02;85.58
57779;BME280;43608;49.486;9.640;2022-07-10T02:02:15;99301.38;;;11.84;85.42
57779;BME280;43608;49.486;9.640;2022-07-10T02:02:46;99352.78;;;12.12;85.58
57779;BME280;43608;49.486;9.640;2022-07-10T02:03:36;99354.53;;;12.10;85.24
57779;BME280;43608;49.486;9.640;2022-07-10T02:04:25;99358.09;;;12.12;85.42
57779;BME280;43608;49.486;9.640;2022-07-10T02:05:11;99341.25;;;12.04;85.36
57779;BME280;43608;49.486;9.640;2022-07-10T02:05:41;99358.06;;;12.11;85.36
57779;BME280;43608;49.486;9.640;2022-07-10T02:06:12;99317.31;;;11.95;85.34
57779;BME280;43608;49.486;9.640;2022-07-10T02:06:42;99305.81;;;11.86;85.60
57779;BME280;43608;49.486;9.640;2022-07-10T02:07:15;99355.41;;;12.11;85.47
57779;BME280;43608;49.486;9.640;2022-07-10T02:07:46;99337.72;;;12.00;85.46
57779;BME280;43608;49.486;9.640;2022-07-10T02:08:16;99333.31;;;11.98;85.35
57779;BME280;43608;49.486;9.640;2022-07-10T02:08:46;99320.91;;;11.95;85.18
57779;BME280;43608;49.486;9.640;2022-07-10T02:09:17;99349.22;;;12.05;85.47
57779;BME280;43608;49.486;9.640;2022-07-10T02:09:47;99323.56;;;11.95;85.46
57779;BME280;43608;49.486;9.640;2022-07-10T02:10:18;99335.94;;;12.04;85.58
57779;BME280;43608;49.486;9.640;2022-07-10T02:10:48;99351.91;;;12.07;85.61
57779;BME280;43608;49.486;9.640;2022-07-10T02:11:19;99333.28;;;11.99;85.60
57779;BME280;43608;49.486;9.640;2022-07-10T02:11:49;99345.69;;;12.11;85.54
57779;BME280;43608;49.486;9.640;2022-07-10T02:12:20;99302.25;;;11.84;85.25
57779;BME280;43608;49.486;9.640;2022-07-10T02:12:50;99343.91;;;12.10;85.63
57779;BME280;43608;49.486;9.640;2022-07-10T02:13:20;99336.84;;;12.06;85.48
57779;BME280;43608;49.486;9.640;2022-07-10T02:13:51;99320.88;;;11.98;85.77
57779;BME280;43608;49.486;9.640;2022-07-10T02:14:21;99342.16;;;12.06;85.94
57779;BME280;43608;49.486;9.640;2022-07-10T02:14:52;99339.50;;;12.06;86.02
57779;BME280;43608;49.486;9.640;2022-07-10T02:15:22;99354.53;;;12.13;85.97
57779;BME280;43608;49.486;9.640;2022-07-10T02:15:56;99352.78;;;12.14;85.94
57779;BME280;43608;49.486;9.640;2022-07-10T02:16:26;99352.78;;;12.14;85.88
57779;BME280;43608;49.486;9.640;2022-07-10T02:16:57;99353.66;;;12.14;85.76
57779;BME280;43608;49.486;9.640;2022-07-10T02:17:27;99343.03;;;12.11;85.89
57779;BME280;43608;49.486;9.640;2022-07-10T02:17:57;99345.69;;;12.05;85.79
57779;BME280;43608;49.486;9.640;2022-07-10T02:18:28;99354.56;;;12.16;86.07
57779;BME280;43608;49.486;9.640;2022-07-10T02:18:59;99322.66;;;12.01;85.90
57779;BME280;43608;49.486;9.640;2022-07-10T02:19:29;99336.81;;;12.09;85.86
57779;BME280;43608;49.486;9.640;2022-07-10T02:20:00;99351.00;;;12.17;85.82
57779;BME280;43608;49.486;9.640;2022-07-10T02:20:30;99349.22;;;12.18;85.95
57779;BME280;43608;49.486;9.640;2022-07-10T02:21:02;99333.31;;;12.07;85.51
57779;BME280;43608;49.486;9.640;2022-07-10T02:21:33;99334.16;;;12.09;85.84
57779;BME280;43608;49.486;9.640;2022-07-10T02:22:03;99338.59;;;12.13;85.83
57779;BME280;43608;49.486;9.640;2022-07-10T02:22:34;99349.22;;;12.19;86.14
57779;BME280;43608;49.486;9.640;2022-07-10T02:23:04;99317.38;;;11.98;85.78
57779;BME280;43608;49.486;9.640;2022-07-10T02:23:36;99336.81;;;12.11;86.02
57779;BME280;43608;49.486;9.640;2022-07-10T02:24:07;99351.00;;;12.17;85.91
57779;BME280;43608;49.486;9.640;2022-07-10T02:24:37;99352.78;;;12.20;85.81
57779;BME280;43608;49.486;9.640;2022-07-10T02:25:08;99338.59;;;12.16;85.86
57779;BME280;43608;49.486;9.640;2022-07-10T02:25:38;99352.78;;;12.20;86.03
57779;BME280;43608;49.486;9.640;2022-07-10T02:26:09;99319.09;;;11.99;85.81
57779;BME280;43608;49.486;9.640;2022-07-10T02:26:39;99350.13;;;12.20;85.67
57779;BME280;43608;49.486;9.640;2022-07-10T02:27:10;99355.44;;;12.20;85.91
57779;BME280;43608;49.486;9.640;2022-07-10T02:27:40;99351.88;;;12.19;85.91
57779;BME280;43608;49.486;9.640;2022-07-10T02:28:11;99335.03;;;12.08;85.92
57779;BME280;43608;49.486;9.640;2022-07-10T02:28:41;99350.13;;;12.20;86.18
57779;BME280;43608;49.486;9.640;2022-07-10T02:29:12;99331.53;;;12.06;86.03
57779;BME280;43608;49.486;9.640;2022-07-10T02:29:42;99342.13;;;12.09;85.84
57779;BME280;43608;49.486;9.640;2022-07-10T02:30:12;99339.50;;;12.12;86.17
57779;BME280;43608;49.486;9.640;2022-07-10T02:30:43;99351.88;;;12.21;86.17
57779;BME280;43608;49.486;9.640;2022-07-10T02:31:13;99350.13;;;12.21;86.22
57779;BME280;43608;49.486;9.640;2022-07-10T02:31:43;99339.50;;;12.15;86.30
57779;BME280;43608;49.486;9.640;2022-07-10T02:32:14;99352.78;;;12.20;86.22
57779;BME280;43608;49.486;9.640;2022-07-10T02:32:44;99344.78;;;12.18;86.41
57779;BME280;43608;49.486;9.640;2022-07-10T02:33:15;99323.56;;;12.06;86.42
57779;BME280;43608;49.486;9.640;2022-07-10T02:33:45;99328.84;;;12.07;86.43
57779;BME280;43608;49.486;9.640;2022-07-10T02:34:16;99357.19;;;12.19;86.23
57779;BME280;43608;49.486;9.640;2022-07-10T02:34:46;99353.66;;;12.19;86.32
57779;BME280;43608;49.486;9.640;2022-07-10T02:35:17;99346.56;;;12.13;86.10
57779;BME280;43608;49.486;9.640;2022-07-10T02:35:47;99325.31;;;12.01;85.92
57779;BME280;43608;49.486;9.640;2022-07-10T02:36:17;99320.88;;;12.00;86.13
57779;BME280;43608;49.486;9.640;2022-07-10T02:36:48;99351.91;;;12.15;86.01
57779;BME280;43608;49.486;9.640;2022-07-10T02:37:18;99358.09;;;12.15;86.22
57779;BME280;43608;49.486;9.640;2022-07-10T02:37:49;99331.53;;;11.98;86.19
57779;BME280;43608;49.486;9.640;2022-07-10T02:38:19;99342.16;;;12.06;86.26
57779;BME280;43608;49.486;9.640;2022-07-10T02:38:50;99360.75;;;12.14;86.19
57779;BME280;43608;49.486;9.640;2022-07-10T02:39:20;99359.84;;;12.13;86.36
57779;BME280;43608;49.486;9.640;2022-07-10T02:39:53;99335.03;;;11.99;86.40
57779;BME280;43608;49.486;9.640;2022-07-10T02:40:23;99330.66;;;11.98;86.23
57779;BME280;43608;49.486;9.640;2022-07-10T02:40:54;99362.50;;;12.12;86.41
57779;BME280;43608;49.486;9.640;2022-07-10T02:41:24;99325.28;;;11.92;86.22
57779;BME280;43608;49.486;9.640;2022-07-10T02:41:55;99362.50;;;12.10;86.41
57779;BME280;43608;49.486;9.640;2022-07-10T02:42:25;99346.56;;;12.09;86.45
57779;BME280;43608;49.486;9.640;2022-07-10T02:42:56;99351.00;;;12.05;86.39
57779;BME280;43608;49.486;9.640;2022-07-10T02:43:26;99355.41;;;12.11;86.43
57779;BME280;43608;49.486;9.640;2022-07-10T02:43:56;99350.09;;;12.11;86.60
57779;BME280;43608;49.486;9.640;2022-07-10T02:44:27;99343.03;;;12.03;86.41
57779;BME280;43608;49.486;9.640;2022-07-10T02:44:59;99357.19;;;12.12;86.76